Terminal Aerodrome Forecast
Issued by NWS

Home | Current Version | Previous Version | Text Only | Print | Product List | Glossary On
Versions: 1 2 3 4 5 6 7 8 9 10 11 12 13
000
FTUS41 KBTV 281246 AAA
TAFMSS
TAF AMD
KMSS 281246Z 2813/2912 25010KT P6SM SCT025 BKN035
      TEMPO 2813/2817 BKN025 OVC030
     FM282100 27009KT P6SM BKN040
     FM290500 25012KT P6SM SCT030 BKN035=

USA.gov is the U.S. government's official web portal to all federal, state and local government web resources and services.